Pittsburgh, Pennsylvania
Traffic Map
Current Weather Conditions
Pittsburgh, Pennsylvania
Few Clouds Haze
Few Clouds
52°
Feels Like: 52°
Wind Chill: 52° Ceiling: Unl
Heat Index: 52° Visibility: 5mi
Dew Point: 48° Wind: 5mph
Humidity: 86% Direction: 350° (N)
Pressure: 30.05in Gusts: 0mph
Raw Report DataKAGC 181153Z 35004KT 5SM BR FEW050 11/09 A3005 RMK AO2 SLP177 T01110089 10128 20106 53015
Traffic Incident Summary
Active as of:
Severity:
Category:
InformationThere was an issue retrieving the traffic information for this location. Please try a different location or try again shortly.
Advertisements
Track Severe Weather on mobile